createdAt,value
2018-09-08T00:00:25.809Z,14.97
2018-09-08T00:01:35.390Z,14.96
2018-09-08T00:02:45.528Z,14.94
2018-09-08T00:03:55.388Z,15
2018-09-08T00:05:05.527Z,15
2018-09-08T00:06:15.663Z,14.96
2018-09-08T00:07:25.239Z,14.92
2018-09-08T00:08:35.092Z,15.02
2018-09-08T00:09:45.218Z,14.97
2018-09-08T00:10:54.530Z,15.02
2018-09-08T00:12:04.107Z,15.05
2018-09-08T00:13:14.237Z,15.05
2018-09-08T00:14:23.817Z,15.07
2018-09-08T00:15:33.665Z,15.02
2018-09-08T00:16:43.793Z,14.94
2018-09-08T00:17:53.643Z,14.99
2018-09-08T00:19:03.498Z,14.99
2018-09-08T00:20:13.625Z,15.07
2018-09-08T00:21:23.750Z,14.97
2018-09-08T00:22:33.655Z,15.07
2018-09-08T00:23:43.777Z,15.05
2018-09-08T00:24:53.900Z,14.96
2018-09-08T00:26:04.032Z,15
2018-09-08T00:27:14.158Z,15.05
2018-09-08T00:28:24.293Z,14.92
2018-09-08T00:29:34.422Z,15.04
2018-09-08T00:30:44.592Z,15.05
2018-09-08T00:31:54.764Z,14.99
2018-09-08T00:33:04.347Z,14.99
2018-09-08T00:34:14.207Z,15
2018-09-08T00:35:24.336Z,14.94
2018-09-08T00:36:34.482Z,15.04
2018-09-08T00:37:44.609Z,15.02
2018-09-08T00:38:54.516Z,14.99
2018-09-08T00:40:04.775Z,14.97
2018-09-08T00:41:14.438Z,14.97
2018-09-08T00:42:24.583Z,14.99
2018-09-08T00:43:34.464Z,14.97
2018-09-08T00:44:44.320Z,14.97
2018-09-08T00:45:54.598Z,14.94
2018-09-08T00:47:04.452Z,14.99
2018-09-08T00:48:14.308Z,15
2018-09-08T00:49:23.898Z,14.89
2018-09-08T00:50:33.747Z,14.93
2018-09-08T00:51:43.603Z,14.94
2018-09-08T00:52:53.185Z,14.99
2018-09-08T00:54:03.333Z,14.99
2018-09-08T00:55:13.189Z,14.9
2018-09-08T00:56:23.319Z,14.9
2018-09-08T00:57:33.451Z,14.99
2018-09-08T00:58:42.759Z,14.9
2018-09-08T00:59:52.888Z,15
2018-09-08T01:01:03.020Z,14.9
2018-09-08T01:02:13.163Z,14.86
2018-09-08T01:03:23.315Z,14.93
2018-09-08T01:04:33.175Z,14.97
2018-09-08T01:05:42.761Z,14.97
2018-09-08T01:06:52.619Z,14.96
2018-09-08T01:08:02.750Z,14.96
2018-09-08T01:09:12.606Z,14.93
2018-09-08T01:10:22.461Z,14.97
2018-09-08T01:11:32.583Z,14.94
2018-09-08T01:12:42.440Z,14.99
2018-09-08T01:13:52.567Z,14.94
2018-09-08T01:15:02.425Z,14.96
2018-09-08T01:16:12.287Z,14.94
2018-09-08T01:17:22.412Z,14.94
2018-09-08T01:18:32.537Z,14.99
2018-09-08T01:19:42.132Z,15.07
2018-09-08T01:20:52.270Z,14.97
2018-09-08T01:22:02.393Z,14.99
2018-09-08T01:23:11.969Z,14.97
2018-09-08T01:24:22.093Z,15
2018-09-08T01:25:31.402Z,14.96
2018-09-08T01:26:41.531Z,14.97
2018-09-08T01:27:51.667Z,15.11
2018-09-08T01:29:01.793Z,14.99
2018-09-08T01:30:11.657Z,14.92
2018-09-08T01:31:21.790Z,14.99
2018-09-08T01:32:31.658Z,15.07
2018-09-08T01:33:41.798Z,14.96
2018-09-08T01:34:51.376Z,15.04
2018-09-08T01:36:01.229Z,15.04
2018-09-08T01:37:10.807Z,15.02
2018-09-08T01:38:20.383Z,15.04
2018-09-08T01:39:29.971Z,15.08
2018-09-08T01:40:40.096Z,15.07
2018-09-08T01:41:50.221Z,15.05
2018-09-08T01:43:00.072Z,15.05
2018-09-08T01:44:09.932Z,15.1
2018-09-08T01:45:19.785Z,15.04
2018-09-08T01:46:29.641Z,15.08
2018-09-08T01:47:39.779Z,15.1
2018-09-08T01:48:49.908Z,15.05
2018-09-08T01:50:00.038Z,15.04
2018-09-08T01:51:09.891Z,15.07
2018-09-08T01:52:20.021Z,15.11
2018-09-08T01:53:30.148Z,15.14
2018-09-08T01:54:40.278Z,15.12
2018-09-08T01:55:50.139Z,15.08
2018-09-08T01:57:00.272Z,15.14
2018-09-08T01:58:10.396Z,15.15
2018-09-08T01:59:20.261Z,15.19
2018-09-08T02:00:30.151Z,15.14
2018-09-08T02:01:40.292Z,15.18
2018-09-08T02:02:50.423Z,15.14
2018-09-08T02:04:00.564Z,15.14
2018-09-08T02:05:10.695Z,15.08
2018-09-08T02:06:20.550Z,15.12
2018-09-08T02:07:30.409Z,15.22
2018-09-08T02:08:40.259Z,15.19
2018-09-08T02:09:49.840Z,15.19
2018-09-08T02:10:59.964Z,15.14
2018-09-08T02:12:09.542Z,15.18
2018-09-08T02:13:19.665Z,15.15
2018-09-08T02:14:29.519Z,15.19
2018-09-08T02:15:39.642Z,15.1
2018-09-08T02:16:49.770Z,15.15
2018-09-08T02:17:59.621Z,15.18
2018-09-08T02:19:09.755Z,15.15
2018-09-08T02:20:19.608Z,15.17
2018-09-08T02:21:29.742Z,15.14
2018-09-08T02:22:39.880Z,15.12
2018-09-08T02:23:49.737Z,15.14
2018-09-08T02:24:59.873Z,15.14
2018-09-08T02:26:09.725Z,15.14
2018-09-08T02:27:19.308Z,15.17
2018-09-08T02:28:29.431Z,15.15
2018-09-08T02:29:39.569Z,15.17
2018-09-08T02:30:49.699Z,15.08
2018-09-08T02:31:59.575Z,15.12
2018-09-08T02:33:09.709Z,15.17
2018-09-08T02:34:19.842Z,15.15
2018-09-08T02:35:29.438Z,15.15
2018-09-08T02:36:39.568Z,15.12
2018-09-08T02:37:49.143Z,15.18
2018-09-08T02:39:00.996Z,15.17
2018-09-08T02:40:10.301Z,15.18
2018-09-08T02:41:20.439Z,15.15
2018-09-08T02:42:30.023Z,15.12
2018-09-08T02:43:40.156Z,15.12
2018-09-08T02:44:50.008Z,15.1
2018-09-08T02:46:00.152Z,15.08
2018-09-08T02:47:10.285Z,15.17
2018-09-08T02:48:20.136Z,15.11
2018-09-08T02:49:29.991Z,15.18
2018-09-08T02:50:39.859Z,15.19
2018-09-08T02:51:49.988Z,15.17
2018-09-08T02:52:59.849Z,15.12
2018-09-08T02:54:09.704Z,15.19
2018-09-08T02:55:19.567Z,15.14
2018-09-08T02:56:29.151Z,15.05
2018-09-08T02:57:39.007Z,15.08
2018-09-08T02:58:48.870Z,15.18
2018-09-08T02:59:58.726Z,15.18
2018-09-08T03:01:08.860Z,15.12
2018-09-08T03:02:18.438Z,15.17
2018-09-08T03:03:28.020Z,15.15
2018-09-08T03:04:37.874Z,15.12
2018-09-08T03:05:48.015Z,15.18
2018-09-08T03:06:57.866Z,15.19
2018-09-08T03:08:08.002Z,15.08
2018-09-08T03:09:18.134Z,15.08
2018-09-08T03:10:28.266Z,15.14
2018-09-08T03:11:38.400Z,15.18
2018-09-08T03:12:47.986Z,15.14
2018-09-08T03:13:58.117Z,15.14
2018-09-08T03:15:07.976Z,15.15
2018-09-08T03:16:17.829Z,15.17
2018-09-08T03:17:27.683Z,15.17
2018-09-08T03:18:37.810Z,15.12
2018-09-08T03:19:47.935Z,15.17
2018-09-08T03:20:57.791Z,15.26
2018-09-08T03:22:07.920Z,15.12
2018-09-08T03:23:17.775Z,15.12
2018-09-08T03:24:27.356Z,15.19
2018-09-08T03:25:37.207Z,15.27
2018-09-08T03:26:47.339Z,15.18
2018-09-08T03:27:57.468Z,15.12
2018-09-08T03:29:07.325Z,15.32
2018-09-08T03:30:17.177Z,15.18
2018-09-08T03:31:27.035Z,15.23
2018-09-08T03:32:37.163Z,15.19
2018-09-08T03:33:47.018Z,15.23
2018-09-08T03:34:56.883Z,15.19
2018-09-08T03:36:06.737Z,15.23
2018-09-08T03:37:16.589Z,15.22
2018-09-08T03:38:26.447Z,15.17
2018-09-08T03:39:36.307Z,15.25
2018-09-08T03:40:46.157Z,15.23
2018-09-08T03:41:56.284Z,15.25
2018-09-08T03:43:06.137Z,15.25
2018-09-08T03:44:15.995Z,15.22
2018-09-08T03:45:26.156Z,15.23
2018-09-08T03:46:36.283Z,15.23
2018-09-08T03:47:46.410Z,15.17
2018-09-08T03:48:56.263Z,15.19
2018-09-08T03:50:06.404Z,15.22
2018-09-08T03:51:16.539Z,15.19
2018-09-08T03:52:26.119Z,15.26
2018-09-08T03:53:36.244Z,15.18
2018-09-08T03:54:46.376Z,15.19
2018-09-08T03:55:56.505Z,15.17
2018-09-08T03:57:06.634Z,15.25
2018-09-08T03:58:16.486Z,15.17
2018-09-08T03:59:26.339Z,15.15
2018-09-08T04:00:36.517Z,15.26
2018-09-08T04:01:46.649Z,15.17
2018-09-08T04:02:56.238Z,15.18
2018-09-08T04:04:06.366Z,15.25
2018-09-08T04:05:16.216Z,15.18
2018-09-08T04:06:26.346Z,15.23
2018-09-08T04:07:36.479Z,15.23
2018-09-08T04:08:46.615Z,15.17
2018-09-08T04:09:56.750Z,15.23
2018-09-08T04:11:06.629Z,15.17
2018-09-08T04:12:16.892Z,15.19
2018-09-08T04:13:27.014Z,15.15
2018-09-08T04:14:37.150Z,15.19
2018-09-08T04:15:47.279Z,15.25
2018-09-08T04:16:57.141Z,15.23
2018-09-08T04:18:07.195Z,15.25
2018-09-08T04:19:17.702Z,15.18
2018-09-08T04:20:27.831Z,15.22
2018-09-08T04:21:37.970Z,15.25
2018-09-08T04:22:48.111Z,15.19
2018-09-08T04:23:58.370Z,15.26
2018-09-08T04:25:08.040Z,15.25
2018-09-08T04:26:17.618Z,15.26
2018-09-08T04:27:27.753Z,15.22
2018-09-08T04:28:37.894Z,15.22
2018-09-08T04:29:48.025Z,15.18
2018-09-08T04:30:57.611Z,15.19
2018-09-08T04:32:07.193Z,15.25
2018-09-08T04:33:17.054Z,15.26
2018-09-08T04:34:26.908Z,15.18
2018-09-08T04:35:37.038Z,15.19
2018-09-08T04:36:47.167Z,15.22
2018-09-08T04:37:57.026Z,15.17
2018-09-08T04:39:07.211Z,15.23
2018-09-08T04:40:17.063Z,15.22
2018-09-08T04:41:26.926Z,15.14
2018-09-08T04:42:37.055Z,15.22
2018-09-08T04:43:46.910Z,15.18
2018-09-08T04:44:57.040Z,15.19
2018-09-08T04:46:06.895Z,15.22
2018-09-08T04:47:17.024Z,15.25
2018-09-08T04:48:27.156Z,15.26
2018-09-08T04:49:37.331Z,15.27
2018-09-08T04:50:47.191Z,15.22
2018-09-08T04:51:57.317Z,15.23
2018-09-08T04:53:06.623Z,15.19
2018-09-08T04:54:15.930Z,15.18
2018-09-08T04:55:25.788Z,15.19
2018-09-08T04:56:35.920Z,15.27
2018-09-08T04:57:46.050Z,15.22
2018-09-08T04:58:56.183Z,15.25
2018-09-08T05:00:06.038Z,15.23
2018-09-08T05:01:15.903Z,15.32
2018-09-08T05:02:25.876Z,15.27
2018-09-08T05:03:36.215Z,15.33
2018-09-08T05:04:46.350Z,15.29
2018-09-08T05:05:56.478Z,15.32
2018-09-08T05:07:06.329Z,15.32
2018-09-08T05:08:16.184Z,15.29
2018-09-08T05:09:26.321Z,15.33
2018-09-08T05:10:36.449Z,15.29
2018-09-08T05:11:46.578Z,15.26
2018-09-08T05:12:56.705Z,15.29
2018-09-08T05:14:06.556Z,15.32
2018-09-08T05:15:16.410Z,15.35
2018-09-08T05:16:25.994Z,15.32
2018-09-08T05:17:35.574Z,15.33
2018-09-08T05:18:44.887Z,15.27
2018-09-08T05:19:55.013Z,15.27
2018-09-08T05:21:04.597Z,15.32
2018-09-08T05:22:14.187Z,15.37
2018-09-08T05:23:24.322Z,15.39
2018-09-08T05:24:34.449Z,15.35
2018-09-08T05:25:44.312Z,15.36
2018-09-08T05:26:54.443Z,15.33
2018-09-08T05:28:04.306Z,15.3
2018-09-08T05:29:14.426Z,15.29
2018-09-08T05:30:24.292Z,15.27
2018-09-08T05:31:34.145Z,15.35
2018-09-08T05:32:43.995Z,15.35
2018-09-08T05:33:54.122Z,15.27
2018-09-08T05:35:04.177Z,15.3
2018-09-08T05:36:14.187Z,15.33
2018-09-08T05:37:24.321Z,15.41
2018-09-08T05:38:34.449Z,15.27
2018-09-08T05:39:44.311Z,15.32
2018-09-08T05:40:53.895Z,15.3
2018-09-08T05:42:03.749Z,15.35
2018-09-08T05:43:13.872Z,15.41
2018-09-08T05:44:23.736Z,15.37
2018-09-08T05:45:33.868Z,15.35
2018-09-08T05:46:43.720Z,15.29
2018-09-08T05:47:53.576Z,15.37
2018-09-08T05:49:03.855Z,15.41
2018-09-08T05:50:13.708Z,15.39
2018-09-08T05:51:23.570Z,15.35
2018-09-08T05:52:33.698Z,15.36
2018-09-08T05:53:43.837Z,15.33
2018-09-08T05:54:53.978Z,15.35
2018-09-08T05:56:03.836Z,15.43
2018-09-08T05:57:13.967Z,15.47
2018-09-08T05:58:23.694Z,15.45
2018-09-08T05:59:33.785Z,15.43
2018-09-08T06:00:43.912Z,15.36
2018-09-08T06:01:53.765Z,15.44
2018-09-08T06:03:03.627Z,15.5
2018-09-08T06:04:13.752Z,15.51
2018-09-08T06:05:23.337Z,15.43
2018-09-08T06:06:33.470Z,15.47
2018-09-08T06:07:43.603Z,15.39
2018-09-08T06:08:53.739Z,15.43
2018-09-08T06:10:03.871Z,15.45
2018-09-08T06:11:13.467Z,15.48
2018-09-08T06:12:22.771Z,15.36
2018-09-08T06:13:32.900Z,15.36
2018-09-08T06:14:43.046Z,15.41
2018-09-08T06:15:53.178Z,15.45
2018-09-08T06:17:03.030Z,15.37
2018-09-08T06:18:13.022Z,15.44
2018-09-08T06:19:23.412Z,15.41
2018-09-08T06:20:33.595Z,15.43
2018-09-08T06:21:43.724Z,15.47
2018-09-08T06:22:53.581Z,15.39
2018-09-08T06:24:03.436Z,15.35
2018-09-08T06:25:13.575Z,15.43
2018-09-08T06:26:23.169Z,15.48
2018-09-08T06:27:32.788Z,15.45
2018-09-08T06:28:43.400Z,15.41
2018-09-08T06:29:53.765Z,15.43
2018-09-08T06:31:03.620Z,15.43
2018-09-08T06:32:13.750Z,15.48
2018-09-08T06:33:23.817Z,15.48
2018-09-08T06:34:33.582Z,15.45
2018-09-08T06:35:43.709Z,15.35
2018-09-08T06:36:53.579Z,15.45
2018-09-08T06:38:03.712Z,15.37
2018-09-08T06:39:13.575Z,15.44
2018-09-08T06:40:23.707Z,15.48
2018-09-08T06:41:33.559Z,15.48
2018-09-08T06:42:56.145Z,15.51
2018-09-08T06:44:05.948Z,15.47
2018-09-08T06:45:15.620Z,15.44
2018-09-08T06:46:25.816Z,15.45
2018-09-08T06:47:35.947Z,15.44
2018-09-08T06:48:45.804Z,15.47
2018-09-08T06:49:55.936Z,15.5
2018-09-08T06:51:05.796Z,15.54
2018-09-08T06:52:16.291Z,15.48
2018-09-08T06:53:26.672Z,15.51
2018-09-08T06:54:38.528Z,15.48
2018-09-08T06:55:48.661Z,15.5
2018-09-08T06:56:58.792Z,15.47
2018-09-08T06:58:08.376Z,15.45
2018-09-08T06:59:18.236Z,15.5
2018-09-08T07:00:28.365Z,15.51
2018-09-08T07:01:38.495Z,15.45
2018-09-08T07:02:48.351Z,15.54
2018-09-08T07:03:58.478Z,15.51
2018-09-08T07:05:07.784Z,15.48
2018-09-08T07:06:17.921Z,15.51
2018-09-08T07:07:28.108Z,15.44
2018-09-08T07:08:37.969Z,15.51
2018-09-08T07:09:48.105Z,15.44
2018-09-08T07:10:58.021Z,15.51
2018-09-08T07:12:08.149Z,15.48
2018-09-08T07:13:18.009Z,15.48
2018-09-08T07:14:27.859Z,15.44
2018-09-08T07:15:37.718Z,15.59
2018-09-08T07:16:47.845Z,15.5
2018-09-08T07:17:57.700Z,15.47
2018-09-08T07:19:07.554Z,15.5
2018-09-08T07:20:17.686Z,15.47
2018-09-08T07:21:27.542Z,15.47
2018-09-08T07:22:37.683Z,15.51
2018-09-08T07:23:46.988Z,15.5
2018-09-08T07:24:57.089Z,15.35
2018-09-08T07:26:06.498Z,15.35
2018-09-08T07:27:15.803Z,15.48
2018-09-08T07:28:25.932Z,15.36
2018-09-08T07:29:43.702Z,15.43
2018-09-08T07:30:53.648Z,15.36
2018-09-08T07:32:03.892Z,15.39
2018-09-08T07:33:13.477Z,15.29
2018-09-08T07:34:23.616Z,15.29
2018-09-08T07:35:33.475Z,15.37
2018-09-08T07:36:43.322Z,15.33
2018-09-08T07:37:53.463Z,15.29
2018-09-08T07:39:03.323Z,15.17
2018-09-08T07:40:13.451Z,15.26
2018-09-08T07:41:23.584Z,15.26
2018-09-08T07:42:33.170Z,15.26
2018-09-08T07:43:43.312Z,15.18
2018-09-08T07:44:52.903Z,15.15
2018-09-08T07:46:03.103Z,15.22
2018-09-08T07:47:12.839Z,15.11
2018-09-08T07:48:22.702Z,15.11
2018-09-08T07:49:32.829Z,15.17
2018-09-08T07:50:42.953Z,15.12
2018-09-08T07:51:53.095Z,15.14
2018-09-08T07:53:03.231Z,15.14
2018-09-08T07:54:13.584Z,15.08
2018-09-08T07:55:23.243Z,15.1
2018-09-08T07:56:33.251Z,15.11
2018-09-08T07:57:43.376Z,15.08
2018-09-08T07:58:53.504Z,15.02
2018-09-08T08:00:03.368Z,15.05
2018-09-08T08:01:13.227Z,15.04
2018-09-08T08:02:23.084Z,15.07
2018-09-08T08:03:32.947Z,15.07
2018-09-08T08:04:43.087Z,15.04
2018-09-08T08:05:52.664Z,14.96
2018-09-08T08:07:02.515Z,14.96
2018-09-08T08:08:12.648Z,14.99
2018-09-08T08:09:22.225Z,14.99
2018-09-08T08:10:31.862Z,14.94
2018-09-08T08:11:41.714Z,14.97
2018-09-08T08:12:51.856Z,14.96
2018-09-08T08:14:01.711Z,14.92
2018-09-08T08:15:11.579Z,14.87
2018-09-08T08:16:21.710Z,14.96
2018-09-08T08:17:31.567Z,14.87
2018-09-08T08:18:41.695Z,14.9
2018-09-08T08:19:51.551Z,14.97
2018-09-08T08:21:01.405Z,14.94
2018-09-08T08:22:11.259Z,14.92
2018-09-08T08:23:21.644Z,14.89
2018-09-08T08:24:31.258Z,14.85
2018-09-08T08:25:41.395Z,14.9
2018-09-08T08:26:51.525Z,14.86
2018-09-08T08:28:01.103Z,14.81
2018-09-08T08:29:11.238Z,14.85
2018-09-08T08:30:21.374Z,14.79
2018-09-08T08:31:31.226Z,14.78
2018-09-08T08:32:41.078Z,14.78
2018-09-08T08:33:51.219Z,14.78
2018-09-08T08:35:01.351Z,14.85
2018-09-08T08:36:11.478Z,14.77
2018-09-08T08:37:20.940Z,14.82
2018-09-08T08:38:30.868Z,14.73
2018-09-08T08:39:42.733Z,14.85
2018-09-08T08:40:52.862Z,14.77
2018-09-08T08:42:02.997Z,14.79
2018-09-08T08:43:12.693Z,14.79
2018-09-08T08:44:22.664Z,14.89
2018-09-08T08:45:32.835Z,14.78
2018-09-08T08:46:42.689Z,14.81
2018-09-08T08:47:52.816Z,14.85
2018-09-08T08:49:02.946Z,14.87
2018-09-08T08:50:12.796Z,14.79
2018-09-08T08:51:22.922Z,14.85
2018-09-08T08:52:33.306Z,14.79
2018-09-08T08:53:43.173Z,14.85
2018-09-08T08:54:53.036Z,14.85
2018-09-08T08:56:02.614Z,14.86
2018-09-08T08:57:12.206Z,14.82
2018-09-08T08:58:22.333Z,14.87
2018-09-08T08:59:32.183Z,14.92
2018-09-08T09:00:42.306Z,14.87
2018-09-08T09:01:52.172Z,14.9
2018-09-08T09:03:02.312Z,14.9
2018-09-08T09:04:12.165Z,14.87
2018-09-08T09:05:22.017Z,14.87
2018-09-08T09:06:31.873Z,14.9
2018-09-08T09:07:42.302Z,14.82
2018-09-08T09:08:54.884Z,14.86
2018-09-08T09:10:04.460Z,14.87
2018-09-08T09:11:14.035Z,14.82
2018-09-08T09:12:23.899Z,14.87
2018-09-08T09:13:33.836Z,14.86
2018-09-08T09:14:45.190Z,14.86
2018-09-08T09:15:55.041Z,14.73
2018-09-08T09:17:04.893Z,14.73
2018-09-08T09:18:14.745Z,14.73
2018-09-08T09:19:24.925Z,14.7
2018-09-08T09:20:34.775Z,14.73
2018-09-08T09:21:44.912Z,14.78
2018-09-08T09:22:54.765Z,14.74
2018-09-08T09:24:04.796Z,14.7
2018-09-08T09:25:15.256Z,14.79
2018-09-08T09:26:25.206Z,14.77
2018-09-08T09:27:35.063Z,14.79
2018-09-08T09:28:44.915Z,14.77
2018-09-08T09:29:55.044Z,14.82
2018-09-08T09:31:05.168Z,14.77
2018-09-08T09:32:15.019Z,14.71
2018-09-08T09:33:25.148Z,14.71
2018-09-08T09:34:34.722Z,14.78
2018-09-08T09:35:44.862Z,14.74
2018-09-08T09:36:54.710Z,14.74
2018-09-08T09:38:04.290Z,14.74
2018-09-08T09:39:14.146Z,14.71
2018-09-08T09:40:24.278Z,14.71
2018-09-08T09:41:34.134Z,14.77
2018-09-08T09:42:43.710Z,14.74
2018-09-08T09:43:53.573Z,14.74
2018-09-08T09:45:03.713Z,14.81
2018-09-08T09:46:13.570Z,14.78
2018-09-08T09:47:23.425Z,14.86
2018-09-08T09:48:33.273Z,14.87
2018-09-08T09:49:43.419Z,14.89
2018-09-08T09:50:53.548Z,14.96
2018-09-08T09:52:03.407Z,14.86
2018-09-08T09:53:13.978Z,14.89
2018-09-08T09:54:24.306Z,14.97
2018-09-08T09:55:33.617Z,14.96
2018-09-08T09:56:43.477Z,14.99
2018-09-08T09:57:53.059Z,14.96
2018-09-08T09:59:02.910Z,14.99
2018-09-08T10:00:13.060Z,15.02
2018-09-08T10:01:22.918Z,15.07
2018-09-08T10:02:33.050Z,15.08
2018-09-08T10:03:42.632Z,14.99
2018-09-08T10:04:52.765Z,15.04
2018-09-08T10:06:02.901Z,15.11
2018-09-08T10:07:13.079Z,15.07
2018-09-08T10:08:23.212Z,15.1
2018-09-08T10:09:32.797Z,15.08
2018-09-08T10:10:42.647Z,15.05
2018-09-08T10:11:52.499Z,15.04
2018-09-08T10:13:04.651Z,15.02
2018-09-08T10:14:13.953Z,14.99
2018-09-08T10:15:24.079Z,15.08
2018-09-08T10:16:33.930Z,15.1
2018-09-08T10:17:43.782Z,15.11
2018-09-08T10:18:53.904Z,15.17
2018-09-08T10:20:03.486Z,15.17
2018-09-08T10:21:13.069Z,15.18
2018-09-08T10:22:23.195Z,15.23
2018-09-08T10:23:32.951Z,15.19
2018-09-08T10:24:43.023Z,15.23
2018-09-08T10:25:52.331Z,15.23
2018-09-08T10:27:01.633Z,15.19
2018-09-08T10:28:11.773Z,15.32
2018-09-08T10:29:21.626Z,15.29
2018-09-08T10:30:30.992Z,15.37
2018-09-08T10:31:40.814Z,15.23
2018-09-08T10:32:51.378Z,15.29
2018-09-08T10:34:01.233Z,15.33
2018-09-08T10:35:10.818Z,15.29
2018-09-08T10:36:20.674Z,15.32
2018-09-08T10:37:30.262Z,15.43
2018-09-08T10:38:40.118Z,15.36
2018-09-08T10:39:50.248Z,15.44
2018-09-08T10:40:59.838Z,15.44
2018-09-08T10:42:09.421Z,15.51
2018-09-08T10:43:18.726Z,15.44
2018-09-08T10:44:28.583Z,15.57
2018-09-08T10:45:38.439Z,15.65
2018-09-08T10:46:48.571Z,15.6
2018-09-08T10:48:06.062Z,15.67
2018-09-08T10:49:15.924Z,15.6
2018-09-08T10:50:25.226Z,15.65
2018-09-08T10:51:35.077Z,15.62
2018-09-08T10:52:44.946Z,15.62
2018-09-08T10:53:55.081Z,15.62
2018-09-08T10:55:04.952Z,15.62
2018-09-08T10:56:15.077Z,15.63
2018-09-08T10:57:24.940Z,15.52
2018-09-08T10:58:35.075Z,15.45
2018-09-08T10:59:45.206Z,15.45
2018-09-08T11:00:55.336Z,15.37
2018-09-08T11:02:06.757Z,15.41
2018-09-08T11:03:18.031Z,15.39
2018-09-08T11:04:27.624Z,15.35
2018-09-08T11:05:37.766Z,15.25
2018-09-08T11:06:47.630Z,15.25
2018-09-08T11:07:57.757Z,15.19
2018-09-08T11:09:07.611Z,15
2018-09-08T11:10:17.468Z,14.89
2018-09-08T11:11:27.371Z,14.82
2018-09-08T11:12:37.225Z,14.73
2018-09-08T11:13:47.075Z,14.61
2018-09-08T11:14:57.221Z,14.53
2018-09-08T11:16:06.808Z,14.48
2018-09-08T11:17:16.670Z,14.51
2018-09-08T11:18:26.805Z,14.58
2018-09-08T11:19:36.659Z,14.45
2018-09-08T11:20:46.799Z,14.37
2018-09-08T11:21:56.652Z,14.4
2018-09-08T11:23:06.554Z,14.4
2018-09-08T11:24:16.409Z,14.28
2018-09-08T11:25:26.543Z,14.31
2018-09-08T11:26:36.665Z,14.28
2018-09-08T11:27:46.801Z,14.19
2018-09-08T11:28:56.991Z,14.12
2018-09-08T11:30:07.122Z,14.19
2018-09-08T11:31:16.764Z,14.07
2018-09-08T11:32:26.631Z,14.04
2018-09-08T11:33:36.766Z,14.08
2018-09-08T11:34:50.673Z,13.95
2018-09-08T11:36:00.268Z,13.94
2018-09-08T11:37:10.412Z,13.93
2018-09-08T11:38:20.877Z,14.01
2018-09-08T11:39:30.425Z,13.94
2018-09-08T11:40:40.557Z,13.89
2018-09-08T11:41:50.416Z,13.8
2018-09-08T11:43:00.269Z,13.85
2018-09-08T11:44:10.120Z,13.85
2018-09-08T11:45:19.426Z,13.82
2018-09-08T11:46:29.556Z,13.87
2018-09-08T11:47:39.421Z,13.89
2018-09-08T11:48:49.557Z,13.78
2018-09-08T11:49:59.686Z,13.75
2018-09-08T11:51:09.272Z,13.76
2018-09-08T11:52:19.453Z,13.73
2018-09-08T11:53:29.300Z,13.68
2018-09-08T11:54:39.156Z,13.64
2018-09-08T11:55:49.508Z,13.65
2018-09-08T11:56:59.358Z,13.64
2018-09-08T11:58:11.272Z,13.64
2018-09-08T11:59:21.126Z,13.6
2018-09-08T12:00:31.093Z,13.62
2018-09-08T12:01:41.219Z,13.6
2018-09-08T12:02:51.134Z,13.58
2018-09-08T12:04:01.066Z,13.57
2018-09-08T12:05:11.197Z,13.52
2018-09-08T12:06:21.454Z,13.55
2018-09-08T12:07:31.797Z,13.5
2018-09-08T12:08:41.099Z,13.58
2018-09-08T12:09:51.112Z,13.5
2018-09-08T12:11:00.974Z,13.5
2018-09-08T12:12:10.841Z,13.5
2018-09-08T12:13:20.971Z,13.54
2018-09-08T12:14:31.105Z,13.54
2018-09-08T12:15:40.733Z,13.54
2018-09-08T12:16:50.880Z,13.65
2018-09-08T12:18:01.024Z,13.54
2018-09-08T12:19:10.767Z,13.57
2018-09-08T12:20:21.132Z,13.64
2018-09-08T12:21:31.032Z,13.62
2018-09-08T12:22:40.615Z,13.62
2018-09-08T12:23:49.919Z,13.65
2018-09-08T12:24:59.499Z,13.68
2018-09-08T12:26:08.802Z,13.67
2018-09-08T12:27:18.375Z,13.71
2018-09-08T12:28:28.226Z,13.75
2018-09-08T12:29:37.807Z,13.75
2018-09-08T12:30:47.610Z,13.71
2018-09-08T12:31:56.920Z,13.8
2018-09-08T12:33:06.274Z,13.89
2018-09-08T12:34:16.147Z,14.03
2018-09-08T12:35:25.730Z,14.04
2018-09-08T12:36:35.309Z,14.15
2018-09-08T12:37:44.884Z,14.31
2018-09-08T12:38:54.509Z,14.34
2018-09-08T12:40:04.264Z,14.41
2018-09-08T12:41:13.841Z,14.37
2018-09-08T12:42:23.695Z,14.55
2018-09-08T12:43:33.817Z,14.53
2018-09-08T12:44:43.944Z,14.71
2018-09-08T12:45:53.982Z,14.73
2018-09-08T12:47:03.837Z,14.9
2018-09-08T12:48:13.416Z,15.04
2018-09-08T12:49:23.546Z,15.29
2018-09-08T12:50:33.671Z,15.29
2018-09-08T12:51:43.799Z,15.45
2018-09-08T12:52:53.654Z,15.51
2018-09-08T12:54:03.512Z,15.66
2018-09-08T12:55:13.654Z,15.7
2018-09-08T12:56:23.524Z,15.8
2018-09-08T12:57:33.653Z,15.84
2018-09-08T12:58:43.789Z,15.92
2018-09-08T12:59:53.652Z,16.09
2018-09-08T13:01:03.783Z,16.09
2018-09-08T13:02:13.646Z,16.17
2018-09-08T13:03:23.821Z,16.25
2018-09-08T13:04:33.404Z,16.24
2018-09-08T13:05:43.550Z,16.25
2018-09-08T13:06:53.136Z,16.29
2018-09-08T13:08:03.094Z,16.37
2018-09-08T13:09:13.232Z,16.4
2018-09-08T13:10:23.089Z,16.5
2018-09-08T13:11:33.218Z,16.54
2018-09-08T13:12:43.351Z,16.49
2018-09-08T13:13:53.213Z,16.57
2018-09-08T13:15:03.348Z,16.55
2018-09-08T13:16:13.216Z,16.54
2018-09-08T13:17:23.078Z,16.59
2018-09-08T13:18:32.659Z,16.62
2018-09-08T13:19:42.797Z,16.83
2018-09-08T13:20:52.927Z,16.68
2018-09-08T13:22:03.058Z,16.73
2018-09-08T13:23:12.926Z,16.76
2018-09-08T13:24:23.053Z,16.87
2018-09-08T13:25:33.036Z,16.82
2018-09-08T13:26:43.167Z,16.95
2018-09-08T13:27:52.748Z,16.94
2018-09-08T13:29:02.058Z,16.95
2018-09-08T13:30:11.657Z,16.98
2018-09-08T13:31:21.788Z,17.07
2018-09-08T13:32:31.661Z,17.12
2018-09-08T13:33:41.602Z,17.04
2018-09-08T13:34:51.910Z,17.17
2018-09-08T13:36:01.768Z,17.2
2018-09-08T13:37:11.894Z,17.28
2018-09-08T13:38:21.750Z,17.19
2018-09-08T13:39:31.257Z,17.35
2018-09-08T13:40:41.032Z,17.38
2018-09-08T13:41:50.889Z,17.41
2018-09-08T13:43:01.093Z,17.42
2018-09-08T13:44:11.229Z,17.47
2018-09-08T13:45:21.090Z,17.47
2018-09-08T13:46:30.959Z,17.42
2018-09-08T13:47:40.825Z,17.49
2018-09-08T13:48:50.681Z,17.52
2018-09-08T13:50:00.809Z,17.63
2018-09-08T13:51:10.680Z,17.73
2018-09-08T13:52:20.813Z,17.78
2018-09-08T13:53:30.126Z,17.8
2018-09-08T13:54:39.991Z,17.84
2018-09-08T13:55:50.121Z,17.79
2018-09-08T13:57:00.258Z,17.8
2018-09-08T13:58:09.868Z,17.86
2018-09-08T13:59:20.016Z,17.76
2018-09-08T14:00:30.150Z,17.87
2018-09-08T14:01:40.285Z,17.76
2018-09-08T14:02:50.420Z,17.76
2018-09-08T14:04:00.299Z,17.59
2018-09-08T14:05:10.549Z,17.66
2018-09-08T14:06:20.464Z,17.72
2018-09-08T14:07:30.595Z,17.63
2018-09-08T14:08:40.451Z,17.59
2018-09-08T14:09:50.579Z,17.49
2018-09-08T14:11:00.717Z,17.42
2018-09-08T14:12:13.962Z,17.47
2018-09-08T14:13:23.264Z,17.63
2018-09-08T14:14:33.127Z,17.65
2018-09-08T14:15:43.327Z,17.71
2018-09-08T14:16:52.903Z,17.84
2018-09-08T14:18:02.762Z,18.19
2018-09-08T14:19:12.342Z,18.39
2018-09-08T14:20:22.204Z,18.46
2018-09-08T14:21:31.787Z,18.48
2018-09-08T14:22:41.366Z,18.43
2018-09-08T14:23:51.273Z,18.41
2018-09-08T14:25:00.860Z,18.26
2018-09-08T14:26:10.440Z,18.08
2018-09-08T14:27:20.018Z,18.36
2018-09-08T14:28:30.277Z,19.01
2018-09-08T14:29:40.361Z,19.49
2018-09-08T14:30:50.216Z,19.82
2018-09-08T14:32:00.350Z,20.36
2018-09-08T14:33:09.941Z,20.75
2018-09-08T14:34:19.796Z,21.04
2018-09-08T14:35:29.993Z,21.58
2018-09-08T14:36:39.923Z,21.96
2018-09-08T14:37:50.300Z,22.36
2018-09-08T14:39:00.158Z,22.53
2018-09-08T14:40:09.746Z,22.53
2018-09-08T14:41:19.719Z,22.81
2018-09-08T14:42:29.306Z,23.25
2018-09-08T14:43:39.173Z,23.52
2018-09-08T14:44:49.313Z,23.77
2018-09-08T14:45:59.456Z,24.06
2018-09-08T14:47:09.598Z,24.34
2018-09-08T14:48:19.525Z,24.56
2018-09-08T14:49:29.131Z,24.84
2018-09-08T14:50:38.996Z,25.14
2018-09-08T14:51:49.146Z,25.26
2018-09-08T14:52:59.069Z,25.49
2018-09-08T14:54:08.941Z,25.78
2018-09-08T14:55:18.805Z,25.95
2018-09-08T14:56:28.671Z,25.98
2018-09-08T14:57:38.566Z,26.13
2018-09-08T14:58:48.522Z,26.29
2018-09-08T14:59:58.664Z,26.56
2018-09-08T15:01:08.539Z,26.53
2018-09-08T15:02:18.413Z,26.6
2018-09-08T15:03:28.556Z,26.79
2018-09-08T15:04:38.968Z,26.89